createdAt,value
2017-05-21T00:04:21.247Z,0
2017-05-21T00:09:17.147Z,0
2017-05-21T00:14:12.981Z,0
2017-05-21T00:19:08.433Z,0
2017-05-21T00:24:04.488Z,0
2017-05-21T00:29:03.184Z,0
2017-05-21T00:33:58.406Z,0
2017-05-21T00:38:54.553Z,0
2017-05-21T00:43:49.982Z,0
2017-05-21T00:48:46.554Z,0
2017-05-21T00:53:42.308Z,0
2017-05-21T00:58:38.256Z,0
2017-05-21T01:03:33.620Z,0
2017-05-21T01:08:30.058Z,0
2017-05-21T01:13:26.004Z,0
2017-05-21T01:18:21.759Z,0
2017-05-21T01:23:17.850Z,0
2017-05-21T01:28:13.453Z,0
2017-05-21T01:33:09.422Z,0
2017-05-21T01:38:05.046Z,0
2017-05-21T01:43:00.872Z,0
2017-05-21T01:47:56.401Z,0
2017-05-21T01:52:52.376Z,0
2017-05-21T01:57:50.106Z,0
2017-05-21T02:02:45.379Z,0
2017-05-21T02:07:41.359Z,0
2017-05-21T02:12:37.536Z,0
2017-05-21T02:17:33.188Z,0
2017-05-21T02:22:28.830Z,0
2017-05-21T02:27:26.049Z,0
2017-05-21T02:32:21.782Z,0
2017-05-21T02:37:17.733Z,0
2017-05-21T02:42:13.570Z,0
2017-05-21T02:47:09.378Z,0
2017-05-21T02:52:05.261Z,0
2017-05-21T02:57:00.863Z,0
2017-05-21T03:01:56.623Z,0
2017-05-21T03:06:53.734Z,0
2017-05-21T03:11:49.208Z,0
2017-05-21T03:16:44.739Z,0
2017-05-21T03:21:40.836Z,0
2017-05-21T03:26:36.666Z,5
2017-05-21T03:31:33.941Z,5
2017-05-21T03:36:29.281Z,10
2017-05-21T03:41:25.209Z,10
2017-05-21T03:46:21.068Z,15
2017-05-21T03:51:17.307Z,20
2017-05-21T03:56:13.171Z,25
2017-05-21T04:01:08.982Z,30
2017-05-21T04:06:04.963Z,35
2017-05-21T04:11:01.997Z,40
2017-05-21T04:15:57.508Z,45
2017-05-21T04:20:53.423Z,55
2017-05-21T04:25:49.887Z,85
2017-05-21T04:30:46.132Z,90
2017-05-21T04:35:42.299Z,90
2017-05-21T04:40:38.490Z,95
2017-05-21T04:45:35.032Z,100
2017-05-21T04:50:31.192Z,105
2017-05-21T04:55:27.641Z,115
2017-05-21T05:00:23.972Z,120
2017-05-21T05:05:20.233Z,125
2017-05-21T05:10:16.991Z,110
2017-05-21T05:15:12.721Z,110
2017-05-21T05:20:08.842Z,105
2017-05-21T05:25:04.417Z,115
2017-05-21T05:30:01.245Z,115
2017-05-21T05:34:57.281Z,110
2017-05-21T05:39:53.399Z,115
2017-05-21T05:44:49.570Z,125
2017-05-21T05:49:46.128Z,110
2017-05-21T05:54:44.931Z,105
2017-05-21T05:59:39.783Z,105
2017-05-21T06:04:36.540Z,105
2017-05-21T06:09:32.938Z,105
2017-05-21T06:14:28.751Z,105
2017-05-21T06:19:24.238Z,110
2017-05-21T06:24:20.252Z,105
2017-05-21T06:29:16.284Z,110
2017-05-21T06:34:12.731Z,115
2017-05-21T06:39:09.943Z,110
2017-05-21T06:44:05.574Z,110
2017-05-21T06:49:01.120Z,110
2017-05-21T06:53:57.397Z,155
2017-05-21T06:58:53.516Z,110
2017-05-21T07:03:49.351Z,115
2017-05-21T07:08:44.604Z,115
2017-05-21T07:13:40.887Z,115
2017-05-21T07:18:36.695Z,115
2017-05-21T07:23:32.604Z,120
2017-05-21T07:28:29.045Z,120
2017-05-21T07:33:26.539Z,140
2017-05-21T07:38:21.868Z,130
2017-05-21T07:43:18.252Z,155
2017-05-21T07:48:14.553Z,1150
2017-05-21T07:53:13.723Z,1290
2017-05-21T07:58:12.008Z,1155
2017-05-21T08:03:10.149Z,1390
2017-05-21T08:08:08.178Z,1365
2017-05-21T08:13:05.430Z,1300
2017-05-21T08:18:02.811Z,1420
2017-05-21T08:22:59.765Z,1305
2017-05-21T08:27:57.176Z,1115
2017-05-21T08:32:53.920Z,1270
2017-05-21T08:37:49.722Z,1285
2017-05-21T08:42:46.338Z,1340
2017-05-21T08:47:42.744Z,1435
2017-05-21T08:52:39.629Z,1525
2017-05-21T08:57:36.056Z,1500
2017-05-21T09:02:32.574Z,1565
2017-05-21T09:07:29.429Z,1695
2017-05-21T09:12:26.059Z,1785
2017-05-21T09:17:21.799Z,1545
2017-05-21T09:22:17.695Z,1465
2017-05-21T09:27:13.733Z,1715
2017-05-21T09:32:10.410Z,1485
2017-05-21T09:37:06.615Z,240
2017-05-21T09:41:59.186Z,370
2017-05-21T09:46:53.217Z,320
2017-05-21T09:51:49.663Z,1965
2017-05-21T09:56:45.545Z,300
2017-05-21T10:01:39.627Z,270
2017-05-21T10:06:34.419Z,325
2017-05-21T10:11:30.908Z,1870
2017-05-21T10:16:29.242Z,1635
2017-05-21T10:21:24.317Z,275
2017-05-21T10:26:18.572Z,240
2017-05-21T10:31:13.646Z,375
2017-05-21T10:36:11.363Z,1765
2017-05-21T10:41:09.236Z,1715
2017-05-21T10:46:07.941Z,1745
2017-05-21T10:51:05.232Z,1380
2017-05-21T10:56:02.170Z,1675
2017-05-21T11:00:58.587Z,1720
2017-05-21T11:05:55.168Z,1725
2017-05-21T11:10:50.772Z,1355
2017-05-21T11:15:46.803Z,1765
2017-05-21T11:20:44.342Z,1880
2017-05-21T11:25:39.065Z,1735
2017-05-21T11:30:36.535Z,1085
2017-05-21T11:35:32.262Z,1930
2017-05-21T11:40:27.183Z,1815
2017-05-21T11:45:24.632Z,1750
2017-05-21T11:50:17.445Z,395
2017-05-21T11:55:09.468Z,290
2017-05-21T12:00:03.976Z,290
2017-05-21T12:04:59.205Z,270
2017-05-21T12:09:54.326Z,245
2017-05-21T12:14:49.503Z,265
2017-05-21T12:19:45.237Z,330
2017-05-21T12:24:42.887Z,1715
2017-05-21T12:29:38.869Z,1455
2017-05-21T12:34:37.252Z,1745
2017-05-21T12:39:34.913Z,1645
2017-05-21T12:44:31.264Z,285
2017-05-21T12:49:31.144Z,200
2017-05-21T12:54:24.230Z,190
2017-05-21T12:59:19.332Z,205
2017-05-21T13:04:15.305Z,240
2017-05-21T13:09:12.098Z,210
2017-05-21T13:14:07.207Z,220
2017-05-21T13:19:02.831Z,215
2017-05-21T13:23:58.559Z,220
2017-05-21T13:28:54.535Z,225
2017-05-21T13:33:53.525Z,225
2017-05-21T13:38:48.340Z,265
2017-05-21T13:43:47.742Z,290
2017-05-21T13:48:43.292Z,1330
2017-05-21T13:53:40.538Z,1395
2017-05-21T13:58:37.090Z,1480
2017-05-21T14:03:33.089Z,1400
2017-05-21T14:08:29.119Z,530
2017-05-21T14:13:24.793Z,305
2017-05-21T14:18:20.274Z,280
2017-05-21T14:23:19.104Z,275
2017-05-21T14:28:15.471Z,260
2017-05-21T14:33:11.051Z,255
2017-05-21T14:38:09.273Z,250
2017-05-21T14:43:04.862Z,230
2017-05-21T14:48:01.164Z,220
2017-05-21T14:52:58.083Z,210
2017-05-21T14:57:53.567Z,205
2017-05-21T15:02:52.331Z,205
2017-05-21T15:07:48.601Z,200
2017-05-21T15:12:43.939Z,205
2017-05-21T15:17:39.980Z,195
2017-05-21T15:22:38.582Z,200
2017-05-21T15:27:33.442Z,195
2017-05-21T15:32:29.656Z,190
2017-05-21T15:37:25.838Z,180
2017-05-21T15:42:22.479Z,175
2017-05-21T15:52:18.626Z,165
2017-05-21T15:57:15.757Z,155
2017-05-21T16:02:11.364Z,145
2017-05-21T16:07:07.213Z,145
2017-05-21T16:12:03.154Z,145
2017-05-21T16:17:00.275Z,135
2017-05-21T16:21:55.574Z,130
2017-05-21T16:26:51.701Z,130
2017-05-21T16:31:47.689Z,135
2017-05-21T16:36:44.171Z,140
2017-05-21T16:41:39.841Z,135
2017-05-21T16:46:36.207Z,135
2017-05-21T16:51:31.901Z,135
2017-05-21T16:56:27.883Z,130
2017-05-21T17:01:24.042Z,130
2017-05-21T17:06:20.018Z,125
2017-05-21T17:11:16.866Z,120
2017-05-21T17:16:12.251Z,115
2017-05-21T17:21:08.327Z,110
2017-05-21T17:26:04.264Z,105
2017-05-21T17:31:00.738Z,100
2017-05-21T17:35:58.271Z,95
2017-05-21T17:40:56.636Z,90
2017-05-21T17:45:52.501Z,85
2017-05-21T17:50:54.273Z,75
2017-05-21T17:55:54.155Z,70
2017-05-21T18:00:48.675Z,65
2017-05-21T18:05:44.772Z,60
2017-05-21T18:10:41.516Z,50
2017-05-21T18:15:38.376Z,50
2017-05-21T18:20:34.750Z,45
2017-05-21T18:25:35.203Z,40
2017-05-21T18:30:31.962Z,40
2017-05-21T18:35:28.719Z,35
2017-05-21T18:40:24.342Z,30
2017-05-21T18:45:20.983Z,30
2017-05-21T18:50:17.344Z,25
2017-05-21T18:55:14.449Z,20
2017-05-21T19:00:16.845Z,15
2017-05-21T19:15:14.409Z,5
2017-05-21T19:20:12.629Z,5
2017-05-21T19:25:07.873Z,0
2017-05-21T19:30:04.402Z,0
2017-05-21T19:35:00.168Z,0
2017-05-21T19:39:56.742Z,0
2017-05-21T19:44:52.540Z,0
2017-05-21T19:49:48.773Z,0
2017-05-21T19:54:45.207Z,0
2017-05-21T19:59:41.398Z,0
2017-05-21T20:04:37.275Z,0
2017-05-21T20:09:33.537Z,0
2017-05-21T20:14:29.967Z,0
2017-05-21T20:19:30.484Z,0
2017-05-21T20:24:26.345Z,0
2017-05-21T20:29:22.952Z,0
2017-05-21T20:34:19.118Z,0
2017-05-21T20:39:14.921Z,0
2017-05-21T20:44:11.872Z,0
2017-05-21T20:49:08.502Z,0
2017-05-21T20:54:03.916Z,0
2017-05-21T20:59:00.219Z,0
2017-05-21T21:03:56.199Z,0
2017-05-21T21:13:52.083Z,0
2017-05-21T21:18:47.642Z,0
2017-05-21T21:23:44.024Z,0
2017-05-21T21:28:40.157Z,0
2017-05-21T21:33:36.953Z,0
2017-05-21T21:38:32.504Z,0
2017-05-21T21:43:29.648Z,0
2017-05-21T21:48:24.987Z,0
2017-05-21T21:53:21.517Z,0
2017-05-21T21:58:17.972Z,0
2017-05-21T22:03:13.729Z,0
2017-05-21T22:08:09.565Z,0
2017-05-21T22:13:05.694Z,0
2017-05-21T22:18:02.407Z,0
2017-05-21T22:22:59.037Z,0
2017-05-21T22:27:55.881Z,0
2017-05-21T22:32:51.447Z,0
2017-05-21T22:42:52.774Z,0
2017-05-21T22:47:49.110Z,0
2017-05-21T22:52:44.771Z,0
2017-05-21T22:57:44.765Z,0
2017-05-21T23:02:39.350Z,0
2017-05-21T23:07:36.339Z,0
2017-05-21T23:12:31.967Z,0
2017-05-21T23:17:28.309Z,0
2017-05-21T23:22:23.974Z,0
2017-05-21T23:27:20.471Z,0
2017-05-21T23:32:16.335Z,0
2017-05-21T23:37:12.571Z,0
2017-05-21T23:42:09.182Z,0
2017-05-21T23:47:05.436Z,0
2017-05-21T23:52:01.200Z,0
2017-05-21T23:56:57.374Z,0
